Crane, Texas
Current Conditions -  °F | °C
As of 1:53 PM on Saturday 20 Dec 2014 (Local Time) from KODO Reporting Station
Clear Clear  
Wind Chill: 14°   Ceiling: Unl
Heat Index: 14°   Visibility: 10mi
Dew Point:   Wind: 10mph
Humidity: 45%   Direction: 200°SSW
Pressure: 30.08"   Gusts: NA
Location:  31.4°N, 102.35°W
Report Text: KODO 201953Z AUTO 20009KT 10SM CLR 14/02 A3008 RMK AO2 SLP172 T01390022
Loading
Personal Weather Stations






























Interactive Weather Map New forecast layout! Learn more

10-Day Weather Forecast

Advertisements
Track Severe Weather on mobile